createdAt,value
2023-02-18T10:33:56.434Z,23.10
2023-02-18T10:36:36.769Z,23.00
2023-02-18T10:39:45.712Z,23.10
2023-02-18T10:42:40.711Z,23.10
2023-02-18T10:45:33.528Z,23.10
2023-02-18T10:48:28.286Z,23.00
2023-02-18T10:50:55.937Z,23.00
2023-02-18T10:53:35.904Z,23.20
2023-02-18T10:56:03.140Z,23.20
2023-02-18T10:58:45.867Z,23.20
2023-02-18T11:01:19.337Z,23.20
2023-02-18T11:03:47.242Z,23.20
2023-02-18T11:06:31.118Z,23.10
2023-02-18T11:08:58.625Z,23.00
2023-02-18T11:11:39.130Z,23.00
2023-02-18T11:14:07.778Z,22.90
2023-02-18T11:16:41.255Z,22.90
2023-02-18T11:19:37.483Z,22.90
2023-02-18T11:22:14.247Z,22.90
2023-02-18T11:24:41.487Z,22.80
2023-02-18T11:27:17.121Z,22.80
2023-02-18T11:29:43.788Z,22.70
2023-02-18T11:32:12.365Z,22.60
2023-02-18T11:34:43.282Z,22.50
2023-02-18T11:37:19.463Z,22.50
2023-02-18T11:39:49.498Z,22.30
2023-02-18T11:42:19.672Z,21.60
2023-02-18T11:45:05.782Z,21.30
2023-02-18T11:47:37.525Z,21.40
2023-02-18T11:50:10.135Z,21.70
2023-02-18T11:52:48.795Z,21.80
2023-02-18T11:55:27.397Z,21.90
2023-02-18T11:57:59.886Z,21.90
2023-02-18T12:00:47.833Z,21.90
2023-02-18T12:03:23.869Z,21.90
2023-02-18T12:05:51.761Z,22.00
2023-02-18T12:08:24.281Z,22.00
2023-02-18T12:10:54.444Z,22.00
2023-02-18T12:13:32.410Z,22.00
2023-02-18T12:16:45.711Z,22.00
2023-02-18T12:19:31.053Z,22.00
2023-02-18T12:22:23.027Z,22.00
2023-02-18T12:25:13.903Z,22.00
2023-02-18T12:27:58.749Z,22.00
2023-02-18T12:30:40.976Z,22.00
2023-02-18T12:33:37.150Z,22.00
2023-02-18T12:36:28.220Z,22.00
2023-02-18T12:39:00.922Z,22.00
2023-02-18T12:41:53.692Z,22.00
2023-02-18T12:44:34.924Z,22.00
2023-02-18T12:47:25.857Z,22.00
2023-02-18T12:50:12.705Z,21.90
2023-02-18T12:52:51.844Z,22.00
2023-02-18T12:55:25.983Z,22.00
2023-02-18T12:58:18.496Z,22.00
2023-02-18T13:00:47.887Z,22.00
2023-02-18T13:03:47.131Z,22.00
2023-02-18T13:06:50.776Z,22.00
2023-02-18T13:09:49.539Z,22.00
2023-02-18T13:12:38.959Z,22.00
2023-02-18T13:15:30.714Z,22.00
2023-02-18T13:17:59.910Z,22.00
2023-02-18T13:20:38.591Z,22.00
2023-02-18T13:23:06.117Z,22.00
2023-02-18T13:25:37.623Z,22.00
2023-02-18T13:28:41.480Z,22.00
2023-02-18T13:31:27.806Z,22.00
2023-02-18T13:34:11.870Z,22.00
2023-02-18T13:37:05.452Z,22.00
2023-02-18T13:39:33.594Z,22.00
2023-02-18T13:42:18.322Z,22.00
2023-02-18T13:44:56.913Z,22.00
2023-02-18T13:47:36.982Z,22.00
2023-02-18T13:50:22.045Z,22.00
2023-02-18T13:53:13.080Z,22.00
2023-02-18T13:56:10.579Z,22.00
2023-02-18T13:58:40.036Z,22.00
2023-02-18T14:01:12.655Z,22.00
2023-02-18T14:03:42.033Z,22.00
2023-02-18T14:06:17.418Z,22.00
2023-02-18T14:08:44.390Z,22.00
2023-02-18T14:11:14.222Z,22.00
2023-02-18T14:13:50.529Z,22.00
2023-02-18T14:16:18.777Z,22.00
2023-02-18T14:18:45.300Z,22.00
2023-02-18T14:21:11.817Z,22.10
2023-02-18T14:23:40.913Z,22.00
2023-02-18T14:26:21.876Z,22.00
2023-02-18T14:28:48.502Z,22.00
2023-02-18T14:31:15.221Z,22.00
2023-02-18T14:33:59.830Z,22.00
2023-02-18T14:36:33.090Z,22.00
2023-02-18T14:39:11.140Z,22.00
2023-02-18T14:42:07.284Z,22.00
2023-02-18T14:44:44.241Z,22.00
2023-02-18T14:47:18.186Z,22.00
2023-02-18T14:49:58.907Z,22.00
2023-02-18T14:52:42.593Z,21.70
2023-02-18T14:55:20.865Z,21.10
2023-02-18T14:58:11.958Z,21.20
2023-02-18T15:00:43.191Z,20.90
2023-02-18T15:05:37.221Z,20.30
2023-02-18T15:08:24.723Z,20.70
2023-02-18T15:10:58.974Z,21.20
2023-02-18T15:13:33.044Z,19.90
2023-02-18T15:16:07.235Z,20.70
2023-02-18T15:19:30.266Z,18.80
2023-02-18T15:21:58.104Z,17.90
2023-02-18T15:24:33.464Z,17.40
2023-02-18T15:27:25.931Z,15.30
2023-02-18T15:29:58.152Z,14.00
2023-02-18T15:32:30.069Z,12.80
2023-02-18T15:34:58.495Z,12.20
2023-02-18T15:37:25.221Z,11.80
2023-02-18T15:39:51.916Z,11.60
2023-02-18T15:42:36.332Z,11.50
2023-02-18T15:45:14.093Z,11.30
2023-02-18T15:47:51.351Z,11.20
2023-02-18T15:50:31.911Z,11.10
2023-02-18T15:53:05.125Z,11.10
2023-02-18T15:55:35.105Z,11.10
2023-02-18T15:58:14.510Z,11.00
2023-02-18T16:01:03.271Z,11.00
2023-02-18T16:03:44.722Z,10.90
2023-02-18T16:06:35.217Z,10.90
2023-02-18T16:09:18.920Z,11.00
2023-02-18T16:11:48.857Z,11.00
2023-02-18T16:14:42.851Z,10.90
2023-02-18T16:17:21.695Z,10.90
2023-02-18T16:20:05.228Z,10.90
2023-02-18T16:22:35.352Z,10.80
2023-02-18T16:25:17.342Z,10.80
2023-02-18T16:28:30.123Z,10.80
2023-02-18T16:30:56.940Z,10.80
2023-02-18T16:33:23.629Z,10.70
2023-02-18T16:35:51.097Z,10.70
2023-02-18T16:38:20.424Z,10.70
2023-02-18T16:40:47.593Z,10.70
2023-02-18T16:43:23.219Z,10.70
2023-02-18T16:45:56.985Z,10.70
2023-02-18T16:48:37.063Z,10.70
2023-02-18T16:51:09.842Z,10.60
2023-02-18T16:53:36.866Z,10.60
2023-02-18T16:56:03.900Z,10.60
2023-02-18T16:58:31.243Z,10.60
2023-02-18T17:00:58.385Z,10.60
2023-02-18T17:03:25.253Z,10.60
2023-02-18T17:05:51.900Z,10.60
2023-02-18T17:08:27.284Z,10.60
2023-02-18T17:10:56.820Z,10.60
2023-02-18T17:13:26.909Z,10.60
2023-02-18T17:15:55.789Z,10.50
2023-02-18T17:18:23.817Z,10.40
2023-02-18T17:20:52.350Z,10.50
2023-02-18T17:23:22.861Z,10.40
2023-02-18T17:25:50.877Z,10.40
2023-02-18T17:28:28.361Z,10.30
2023-02-18T17:30:58.169Z,10.30
2023-02-18T17:33:25.763Z,10.20
